Time;durP1;ratioP1;P1;durP2;ratioP2;P2;SDS_P1;SDS_P2;PMS_P1;PMS_P2;Temp;Humidity;BMP_temperature;BMP_pressure;BME280_temperature;BME280_humidity;BME280_pressure;Samples;Min_cycle;Max_cycle;Signal;HPM_P1;HPM_P2
2023/03/25 00:02:23;;;;;;;8.18;2.53;;;;;;;;;;4966822;28;21788;-80
2023/03/25 00:04:52;;;;;;;7.10;2.45;;;;;;;;;;4969245;28;20042;-80
2023/03/25 00:07:20;;;;;;;5.43;2.30;;;;;;;;;;4987046;28;20043;-80
2023/03/25 00:09:51;;;;;;;5.95;2.40;;;;;;;;;;4987857;28;20042;-80
2023/03/25 00:12:19;;;;;;;8.45;2.75;;;;;;;;;;4985045;28;20031;-80
2023/03/25 00:14:57;;;;;;;7.47;2.88;;;;;;;;;;4999244;28;20070;-80
2023/03/25 00:17:30;;;;;;;7.25;2.88;;;;;;;;;;4983696;28;20496;-81
2023/03/25 00:20:21;;;;;;;8.70;2.47;;;;;;;;;;4986526;28;20103;-80
2023/03/25 00:23:13;;;;;;;8.32;2.35;;;;;;;;;;4996287;28;20027;-81
2023/03/25 00:25:51;;;;;;;6.68;2.80;;;;;;;;;;4954563;28;20073;-81
2023/03/25 00:28:19;;;;;;;6.78;2.53;;;;;;;;;;4988937;28;20447;-80
2023/03/25 00:30:47;;;;;;;7.93;2.90;;;;;;;;;;4966784;28;20043;-80
2023/03/25 00:33:21;;;;;;;9.88;3.00;;;;;;;;;;4970191;28;20042;-81
2023/03/25 00:35:53;;;;;;;7.40;3.08;;;;;;;;;;4985370;28;20123;-80
2023/03/25 00:38:23;;;;;;;7.60;2.88;;;;;;;;;;4984844;28;20046;-81
2023/03/25 00:40:55;;;;;;;8.40;2.95;;;;;;;;;;4985235;28;20043;-80
2023/03/25 00:43:23;;;;;;;7.25;3.08;;;;;;;;;;5001430;28;20475;-81
2023/03/25 00:45:55;;;;;;;9.57;3.22;;;;;;;;;;4970259;28;20069;-80
2023/03/25 00:48:23;;;;;;;6.75;2.78;;;;;;;;;;4985034;28;20062;-81
2023/03/25 00:50:57;;;;;;;6.63;3.20;;;;;;;;;;4987225;28;20065;-81
2023/03/25 00:53:29;;;;;;;6.22;2.90;;;;;;;;;;4985273;28;20556;-81
2023/03/25 00:56:03;;;;;;;8.77;3.35;;;;;;;;;;4985788;28;20042;-80
2023/03/25 00:58:31;;;;;;;8.20;3.22;;;;;;;;;;4986259;28;20522;-80
2023/03/25 01:00:59;;;;;;;9.48;3.45;;;;;;;;;;4968916;28;20053;-81
2023/03/25 01:03:30;;;;;;;10.00;2.90;;;;;;;;;;4986426;28;20037;-80
2023/03/25 01:05:57;;;;;;;7.90;2.88;;;;;;;;;;4985622;28;20043;-80
2023/03/25 01:08:30;;;;;;;8.70;3.20;;;;;;;;;;4986503;28;20117;-80
2023/03/25 01:10:59;;;;;;;8.63;2.97;;;;;;;;;;4984309;28;20116;-80
2023/03/25 01:13:53;;;;;;;6.47;3.08;;;;;;;;;;4986549;28;20034;-81
2023/03/25 01:16:21;;;;;;;7.05;2.80;;;;;;;;;;4975329;28;20038;-80
2023/03/25 01:18:54;;;;;;;9.23;2.85;;;;;;;;;;4987768;28;20068;-80
2023/03/25 01:21:21;;;;;;;8.38;2.72;;;;;;;;;;4986498;28;20118;-80
2023/03/25 01:23:49;;;;;;;10.38;2.80;;;;;;;;;;4985674;28;20121;-80
2023/03/25 01:26:22;;;;;;;5.20;2.75;;;;;;;;;;4984706;28;20048;-81
2023/03/25 01:28:56;;;;;;;7.60;3.17;;;;;;;;;;5002564;28;20050;-81
2023/03/25 01:31:29;;;;;;;5.43;2.72;;;;;;;;;;4984616;28;20031;-81
2023/03/25 01:34:01;;;;;;;10.38;2.95;;;;;;;;;;4969486;28;20046;-81
2023/03/25 01:36:29;;;;;;;6.25;2.75;;;;;;;;;;4968390;28;20502;-81
2023/03/25 01:39:21;;;;;;;11.48;3.08;;;;;;;;;;4975437;28;20037;-81
2023/03/25 01:41:50;;;;;;;6.07;2.97;;;;;;;;;;4986632;28;20487;-81
2023/03/25 01:44:23;;;;;;;9.77;3.65;;;;;;;;;;4968232;28;20050;-80
2023/03/25 01:46:51;;;;;;;9.15;2.90;;;;;;;;;;4974576;28;20050;-81
2023/03/25 01:49:30;;;;;;;6.70;2.83;;;;;;;;;;4969368;28;21143;-81
2023/03/25 01:52:03;;;;;;;8.75;2.65;;;;;;;;;;4998739;28;20489;-81
2023/03/25 01:54:32;;;;;;;6.45;2.63;;;;;;;;;;4985552;28;20077;-80
2023/03/25 01:56:59;;;;;;;5.65;2.63;;;;;;;;;;4971432;28;20034;-80
2023/03/25 01:59:28;;;;;;;7.95;2.47;;;;;;;;;;4986710;28;20047;-81
2023/03/25 02:01:57;;;;;;;6.38;2.20;;;;;;;;;;5001065;28;20119;-81
2023/03/25 02:04:39;;;;;;;10.98;2.80;;;;;;;;;;4986634;28;20954;-81
2023/03/25 02:07:09;;;;;;;8.98;2.50;;;;;;;;;;4986136;28;20404;-81
2023/03/25 02:09:46;;;;;;;6.53;3.08;;;;;;;;;;4986604;28;20035;-81
2023/03/25 02:12:19;;;;;;;8.57;2.92;;;;;;;;;;5002781;28;20056;-81
2023/03/25 02:14:54;;;;;;;5.90;2.60;;;;;;;;;;4948572;28;20038;-81
2023/03/25 02:17:58;;;;;;;10.27;2.75;;;;;;;;;;4983269;28;20431;-81
2023/03/25 02:20:56;;;;;;;7.32;2.65;;;;;;;;;;5000101;28;20130;-81
2023/03/25 02:24:13;;;;;;;5.13;2.30;;;;;;;;;;4969802;28;20407;-81
2023/03/25 02:26:44;;;;;;;6.93;2.75;;;;;;;;;;4958678;28;20066;-82
2023/03/25 02:30:05;;;;;;;6.53;2.70;;;;;;;;;;4984962;28;20404;-81
2023/03/25 02:33:09;;;;;;;8.07;2.65;;;;;;;;;;4983963;28;20050;-81
2023/03/25 02:35:59;;;;;;;7.82;2.42;;;;;;;;;;4984427;28;20042;-81
2023/03/25 02:38:35;;;;;;;7.65;2.28;;;;;;;;;;4984556;28;20099;-81
2023/03/25 02:41:58;;;;;;;6.93;2.45;;;;;;;;;;4983597;28;20392;-80
2023/03/25 02:44:36;;;;;;;7.53;2.63;;;;;;;;;;4969658;28;20066;-81
2023/03/25 02:47:07;;;;;;;7.40;2.58;;;;;;;;;;4967122;28;20084;-81
2023/03/25 02:49:53;;;;;;;7.55;3.25;;;;;;;;;;4969337;28;20065;-81
2023/03/25 02:52:29;;;;;;;8.82;2.45;;;;;;;;;;4981906;28;20050;-81
2023/03/25 02:55:03;;;;;;;9.02;2.90;;;;;;;;;;4957493;28;20056;-81
2023/03/25 02:58:00;;;;;;;9.73;2.50;;;;;;;;;;4987743;28;20038;-81
2023/03/25 03:00:30;;;;;;;7.97;2.00;;;;;;;;;;4987452;28;20038;-81
2023/03/25 03:03:00;;;;;;;7.38;2.53;;;;;;;;;;4983953;28;20041;-81
2023/03/25 03:05:36;;;;;;;8.48;2.80;;;;;;;;;;4969028;28;20492;-81
2023/03/25 03:08:25;;;;;;;13.65;2.55;;;;;;;;;;4984899;28;20039;-81
2023/03/25 03:11:11;;;;;;;7.10;2.53;;;;;;;;;;4985796;28;20549;-81
2023/03/25 03:13:51;;;;;;;8.38;2.80;;;;;;;;;;4986819;28;20446;-81
2023/03/25 03:16:34;;;;;;;7.93;2.88;;;;;;;;;;4969336;28;20038;-81
2023/03/25 03:19:23;;;;;;;7.13;2.40;;;;;;;;;;4985311;28;20125;-81
2023/03/25 03:22:02;;;;;;;6.72;3.17;;;;;;;;;;4983842;28;20095;-81
2023/03/25 03:24:38;;;;;;;8.00;2.60;;;;;;;;;;5001839;28;20125;-81
2023/03/25 03:27:22;;;;;;;6.25;2.45;;;;;;;;;;4985107;28;20038;-81
2023/03/25 03:30:47;;;;;;;8.13;2.58;;;;;;;;;;4986276;28;20038;-81
2023/03/25 03:33:39;;;;;;;5.90;2.67;;;;;;;;;;4985453;28;20038;-80
2023/03/25 03:36:17;;;;;;;7.38;3.20;;;;;;;;;;4967868;28;20046;-80
2023/03/25 03:38:51;;;;;;;6.07;2.70;;;;;;;;;;4985458;28;20095;-81
2023/03/25 03:41:21;;;;;;;8.68;2.97;;;;;;;;;;4984204;28;20039;-80
2023/03/25 03:44:17;;;;;;;6.68;2.88;;;;;;;;;;4983066;28;20476;-81
2023/03/25 03:46:49;;;;;;;5.00;2.42;;;;;;;;;;4968141;28;20041;-81
2023/03/25 03:49:22;;;;;;;8.27;2.67;;;;;;;;;;5005078;28;20054;-81
2023/03/25 03:52:07;;;;;;;7.32;2.72;;;;;;;;;;4987631;28;20404;-81
2023/03/25 03:55:00;;;;;;;8.05;2.47;;;;;;;;;;4971009;28;20060;-81
2023/03/25 03:57:43;;;;;;;8.80;2.75;;;;;;;;;;4980090;28;20042;-81
2023/03/25 04:00:17;;;;;;;7.45;2.47;;;;;;;;;;5000228;28;20035;-80
2023/03/25 04:02:58;;;;;;;6.32;2.40;;;;;;;;;;4988913;28;20031;-80
2023/03/25 04:05:29;;;;;;;7.78;2.40;;;;;;;;;;4988786;28;20068;-81
2023/03/25 04:08:10;;;;;;;6.15;2.60;;;;;;;;;;4984348;28;20045;-81
2023/03/25 04:10:45;;;;;;;8.48;2.15;;;;;;;;;;4969713;28;20039;-80
2023/03/25 04:13:41;;;;;;;4.82;2.40;;;;;;;;;;4988554;28;20045;-80
2023/03/25 04:16:10;;;;;;;9.15;2.55;;;;;;;;;;4987410;28;20038;-81
2023/03/25 04:18:38;;;;;;;8.73;2.95;;;;;;;;;;4968667;28;20449;-81
2023/03/25 04:21:05;;;;;;;6.93;2.78;;;;;;;;;;4991354;28;20038;-81
2023/03/25 04:23:33;;;;;;;7.30;2.58;;;;;;;;;;4987620;28;20042;-80
2023/03/25 04:26:05;;;;;;;7.40;2.60;;;;;;;;;;4988745;28;20446;-80
2023/03/25 04:29:00;;;;;;;7.68;2.67;;;;;;;;;;4989207;28;20041;-81
2023/03/25 04:31:29;;;;;;;8.20;2.88;;;;;;;;;;4986493;28;20038;-81
2023/03/25 04:34:02;;;;;;;6.10;2.40;;;;;;;;;;4987801;28;20039;-81
2023/03/25 04:36:55;;;;;;;5.40;2.30;;;;;;;;;;4973162;28;20125;-81
2023/03/25 04:39:31;;;;;;;4.20;1.90;;;;;;;;;;4988747;28;20115;-81
2023/03/25 04:42:02;;;;;;;5.65;1.98;;;;;;;;;;5002177;28;20027;-81
2023/03/25 04:44:37;;;;;;;7.30;2.35;;;;;;;;;;4945552;28;20056;-80
2023/03/25 04:47:13;;;;;;;9.10;2.75;;;;;;;;;;4987252;28;20053;-80
2023/03/25 04:49:45;;;;;;;7.38;2.20;;;;;;;;;;5000343;28;20496;-81
2023/03/25 04:52:13;;;;;;;6.93;2.30;;;;;;;;;;4984198;28;20042;-80
2023/03/25 04:54:41;;;;;;;4.53;2.30;;;;;;;;;;4968051;28;20053;-81
2023/03/25 04:57:33;;;;;;;6.65;2.30;;;;;;;;;;4969642;28;20041;-81
2023/03/25 05:00:07;;;;;;;4.18;2.03;;;;;;;;;;5001509;28;20051;-81
2023/03/25 05:03:00;;;;;;;7.80;2.08;;;;;;;;;;4986049;28;20515;-81
2023/03/25 05:05:29;;;;;;;6.63;2.08;;;;;;;;;;4971168;28;20050;-81
2023/03/25 05:08:02;;;;;;;9.23;2.78;;;;;;;;;;4986606;28;20470;-81
2023/03/25 05:10:37;;;;;;;6.85;2.22;;;;;;;;;;4974003;28;20528;-81
2023/03/25 05:13:06;;;;;;;5.75;1.95;;;;;;;;;;4971039;28;20134;-81
2023/03/25 05:15:38;;;;;;;6.65;2.33;;;;;;;;;;4987646;28;20129;-81
2023/03/25 05:18:30;;;;;;;4.43;2.17;;;;;;;;;;4986525;28;20042;-81
2023/03/25 05:21:04;;;;;;;5.10;2.30;;;;;;;;;;4987200;28;20041;-81
2023/03/25 05:23:36;;;;;;;6.93;2.25;;;;;;;;;;4970558;28;20470;-81
2023/03/25 05:26:03;;;;;;;6.35;2.58;;;;;;;;;;4999834;28;20043;-81
2023/03/25 05:28:38;;;;;;;8.10;2.55;;;;;;;;;;4984052;28;20056;-81
2023/03/25 05:31:09;;;;;;;5.13;2.60;;;;;;;;;;4969114;28;20066;-81
2023/03/25 05:33:42;;;;;;;7.50;2.15;;;;;;;;;;5001379;28;20502;-81
2023/03/25 05:36:10;;;;;;;6.45;2.00;;;;;;;;;;4952268;28;20078;-80
2023/03/25 05:38:43;;;;;;;5.85;2.05;;;;;;;;;;4969133;28;20133;-81
2023/03/25 05:41:15;;;;;;;8.70;2.58;;;;;;;;;;4985963;28;20067;-81
2023/03/25 05:43:53;;;;;;;7.28;2.35;;;;;;;;;;4970289;28;20035;-81
2023/03/25 05:46:21;;;;;;;5.38;2.70;;;;;;;;;;4987007;28;20132;-81
2023/03/25 05:48:50;;;;;;;8.13;2.58;;;;;;;;;;4987094;28;20141;-81
2023/03/25 05:51:20;;;;;;;7.40;2.70;;;;;;;;;;4985504;28;20042;-81
2023/03/25 05:53:53;;;;;;;9.73;2.65;;;;;;;;;;4985393;28;20034;-81
2023/03/25 05:56:23;;;;;;;8.75;2.90;;;;;;;;;;4987200;28;20097;-80
2023/03/25 05:58:52;;;;;;;7.82;2.70;;;;;;;;;;4985685;28;20542;-81
2023/03/25 06:01:26;;;;;;;6.57;2.55;;;;;;;;;;4960034;28;20030;-81
2023/03/25 06:04:01;;;;;;;7.68;3.00;;;;;;;;;;4982473;28;20138;-81
2023/03/25 06:06:32;;;;;;;10.10;3.38;;;;;;;;;;4967670;28;20103;-80
2023/03/25 06:09:01;;;;;;;9.25;2.50;;;;;;;;;;4987619;28;20590;-80
2023/03/25 06:11:55;;;;;;;5.88;2.33;;;;;;;;;;5002480;28;20030;-81
2023/03/25 06:14:27;;;;;;;10.43;2.35;;;;;;;;;;4984924;28;20134;-80
2023/03/25 06:16:55;;;;;;;7.53;2.70;;;;;;;;;;4985812;28;20062;-81
2023/03/25 06:19:37;;;;;;;6.35;2.50;;;;;;;;;;4968274;28;20042;-81
2023/03/25 06:22:11;;;;;;;7.20;2.55;;;;;;;;;;4998960;28;20065;-81
2023/03/25 06:25:30;;;;;;;10.32;2.20;;;;;;;;;;4987689;28;20049;-81
2023/03/25 06:28:03;;;;;;;7.50;2.60;;;;;;;;;;4970821;28;20150;-81
2023/03/25 06:30:31;;;;;;;9.27;2.75;;;;;;;;;;4987263;28;20053;-81
2023/03/25 06:33:04;;;;;;;4.65;2.20;;;;;;;;;;4968308;28;20046;-80
2023/03/25 06:35:37;;;;;;;5.05;2.30;;;;;;;;;;4983513;28;20058;-81
2023/03/25 06:38:09;;;;;;;7.82;2.70;;;;;;;;;;4985402;28;20038;-81
2023/03/25 06:40:59;;;;;;;8.93;2.88;;;;;;;;;;4976794;28;20127;-80
2023/03/25 06:43:27;;;;;;;10.32;2.78;;;;;;;;;;4952820;28;20073;-80
2023/03/25 06:46:13;;;;;;;8.77;3.00;;;;;;;;;;4971673;28;20042;-81
2023/03/25 06:49:09;;;;;;;9.55;2.60;;;;;;;;;;4970376;28;20214;-81
2023/03/25 06:51:42;;;;;;;12.23;3.00;;;;;;;;;;4985254;28;20171;-81
2023/03/25 06:54:09;;;;;;;10.57;3.33;;;;;;;;;;5001661;28;20527;-81
2023/03/25 06:57:01;;;;;;;9.13;2.95;;;;;;;;;;4984094;28;20034;-81
2023/03/25 06:59:33;;;;;;;8.50;2.70;;;;;;;;;;4976611;28;20511;-81
2023/03/25 07:02:06;;;;;;;9.88;2.65;;;;;;;;;;4954339;28;20034;-81
2023/03/25 07:04:33;;;;;;;9.25;2.78;;;;;;;;;;4985050;28;20054;-81
2023/03/25 07:07:01;;;;;;;10.23;3.05;;;;;;;;;;4966483;28;20494;-81
2023/03/25 07:09:29;;;;;;;6.80;2.78;;;;;;;;;;4968247;28;20073;-80
2023/03/25 07:11:58;;;;;;;7.65;2.53;;;;;;;;;;4968020;28;20066;-81
2023/03/25 07:14:25;;;;;;;6.07;2.40;;;;;;;;;;4966035;28;20038;-81
2023/03/25 07:16:53;;;;;;;10.88;3.13;;;;;;;;;;4967425;28;20064;-81
2023/03/25 07:19:21;;;;;;;7.03;2.22;;;;;;;;;;4999246;28;20038;-81
2023/03/25 07:21:53;;;;;;;4.85;2.10;;;;;;;;;;4985704;28;20049;-81
2023/03/25 07:24:21;;;;;;;7.53;2.10;;;;;;;;;;4973021;28;20061;-81
2023/03/25 07:26:49;;;;;;;5.93;2.42;;;;;;;;;;4972665;28;20038;-81
2023/03/25 07:29:19;;;;;;;8.18;2.35;;;;;;;;;;4986908;28;20034;-81
2023/03/25 07:31:47;;;;;;;5.05;1.90;;;;;;;;;;4971583;28;20053;-81
2023/03/25 07:34:41;;;;;;;8.93;2.63;;;;;;;;;;4988606;28;20047;-81
2023/03/25 07:37:09;;;;;;;6.07;2.80;;;;;;;;;;4972795;28;20555;-80
2023/03/25 07:39:37;;;;;;;8.70;2.78;;;;;;;;;;4970712;28;20127;-80
2023/03/25 07:42:06;;;;;;;9.77;2.60;;;;;;;;;;4970063;28;20066;-80
2023/03/25 07:44:57;;;;;;;7.60;2.33;;;;;;;;;;4987176;28;20046;-80
2023/03/25 07:47:31;;;;;;;11.07;3.05;;;;;;;;;;4970487;28;20054;-80
2023/03/25 07:49:59;;;;;;;7.57;2.72;;;;;;;;;;4990056;28;20085;-80
2023/03/25 07:52:55;;;;;;;12.50;2.50;;;;;;;;;;5000451;28;20556;-80
2023/03/25 07:55:25;;;;;;;7.68;2.42;;;;;;;;;;4972790;28;20465;-80
2023/03/25 07:57:57;;;;;;;10.68;2.30;;;;;;;;;;4987314;28;20546;-80
2023/03/25 08:00:25;;;;;;;6.95;2.38;;;;;;;;;;4985509;28;20061;-80
2023/03/25 08:02:53;;;;;;;6.45;1.95;;;;;;;;;;5000194;28;20427;-81
2023/03/25 08:05:21;;;;;;;7.13;2.20;;;;;;;;;;4987630;28;20100;-80
2023/03/25 08:07:50;;;;;;;8.18;2.30;;;;;;;;;;4969532;28;20069;-80
2023/03/25 08:10:23;;;;;;;7.57;2.20;;;;;;;;;;4989363;28;21942;-80
2023/03/25 08:12:55;;;;;;;5.85;1.92;;;;;;;;;;4988138;28;20795;-80
2023/03/25 08:15:47;;;;;;;4.93;2.00;;;;;;;;;;4949059;28;20053;-80
2023/03/25 08:18:19;;;;;;;5.95;2.20;;;;;;;;;;5001528;28;20563;-80
2023/03/25 08:20:49;;;;;;;8.38;1.90;;;;;;;;;;4970233;28;20046;-80
2023/03/25 08:23:18;;;;;;;5.32;2.03;;;;;;;;;;4970593;28;20038;-80
2023/03/25 08:25:48;;;;;;;6.85;1.98;;;;;;;;;;4988253;28;20554;-80
2023/03/25 08:28:21;;;;;;;9.15;2.00;;;;;;;;;;4978224;28;20050;-80
2023/03/25 08:30:53;;;;;;;8.68;2.30;;;;;;;;;;4968228;28;20040;-80
2023/03/25 08:33:26;;;;;;;6.28;2.17;;;;;;;;;;4962889;28;20072;-81
2023/03/25 08:35:57;;;;;;;5.45;2.25;;;;;;;;;;4969721;28;20117;-81
2023/03/25 08:38:30;;;;;;;4.20;1.75;;;;;;;;;;4987724;28;20031;-80
2023/03/25 08:41:25;;;;;;;6.25;1.88;;;;;;;;;;4990062;28;20453;-80
2023/03/25 08:43:57;;;;;;;6.53;2.17;;;;;;;;;;4985254;28;20076;-80
2023/03/25 08:46:25;;;;;;;7.25;2.25;;;;;;;;;;4971441;28;20055;-80
2023/03/25 08:49:17;;;;;;;7.38;2.10;;;;;;;;;;4985291;28;20092;-81
2023/03/25 08:51:45;;;;;;;4.40;1.67;;;;;;;;;;5001030;28;20107;-80
2023/03/25 08:54:13;;;;;;;7.70;1.90;;;;;;;;;;5001037;28;20467;-80
2023/03/25 08:57:05;;;;;;;6.80;1.95;;;;;;;;;;4974721;28;20038;-80
2023/03/25 08:59:35;;;;;;;4.68;1.70;;;;;;;;;;4984831;28;20631;-81
2023/03/25 09:02:03;;;;;;;5.63;1.98;;;;;;;;;;4984477;28;20049;-81
2023/03/25 09:04:31;;;;;;;7.95;2.00;;;;;;;;;;4954417;28;20170;-80
2023/03/25 09:07:29;;;;;;;7.05;2.10;;;;;;;;;;4984642;28;20172;-81
2023/03/25 09:10:53;;;;;;;5.47;1.65;;;;;;;;;;4982454;28;20080;-81
2023/03/25 09:13:21;;;;;;;8.60;1.95;;;;;;;;;;4969883;28;20066;-81
2023/03/25 09:15:58;;;;;;;7.68;2.10;;;;;;;;;;4969565;28;20074;-81
2023/03/25 09:18:31;;;;;;;4.50;1.73;;;;;;;;;;4968947;28;20049;-80
2023/03/25 09:21:00;;;;;;;6.18;1.30;;;;;;;;;;4988129;28;20054;-80
2023/03/25 09:23:33;;;;;;;7.95;1.80;;;;;;;;;;4983792;28;20038;-81
2023/03/25 09:26:03;;;;;;;7.93;1.55;;;;;;;;;;4984086;28;20052;-81
2023/03/25 09:28:31;;;;;;;2.92;1.10;;;;;;;;;;4987011;28;20125;-81
2023/03/25 09:31:03;;;;;;;10.13;1.58;;;;;;;;;;4987686;28;20046;-81
2023/03/25 09:33:35;;;;;;;4.03;1.05;;;;;;;;;;4987561;28;20046;-81
2023/03/25 09:36:03;;;;;;;2.72;0.77;;;;;;;;;;4988369;28;20137;-81
2023/03/25 09:38:36;;;;;;;1.98;0.98;;;;;;;;;;4971599;28;20069;-80
2023/03/25 09:41:21;;;;;;;4.50;1.00;;;;;;;;;;4972176;28;20035;-81
2023/03/25 09:44:14;;;;;;;3.78;1.10;;;;;;;;;;4976879;28;20049;-81
2023/03/25 09:46:43;;;;;;;2.63;1.02;;;;;;;;;;4985352;28;20697;-81
2023/03/25 09:49:19;;;;;;;2.00;1.20;;;;;;;;;;4985606;28;20052;-81
2023/03/25 09:51:51;;;;;;;4.00;1.38;;;;;;;;;;5001014;28;20118;-81
2023/03/25 09:54:36;;;;;;;4.60;1.20;;;;;;;;;;4970296;28;20404;-80
2023/03/25 09:57:30;;;;;;;3.85;0.93;;;;;;;;;;4973396;28;20060;-81
2023/03/25 10:00:00;;;;;;;2.92;1.10;;;;;;;;;;4984803;28;20041;-81
2023/03/25 10:03:00;;;;;;;2.35;1.10;;;;;;;;;;4985777;28;20485;-81
2023/03/25 10:06:00;;;;;;;3.55;1.02;;;;;;;;;;4986494;28;20038;-81
2023/03/25 10:09:38;;;;;;;5.20;1.30;;;;;;;;;;4998120;28;20057;-81
2023/03/25 10:12:25;;;;;;;4.47;1.42;;;;;;;;;;4986632;28;20042;-81
2023/03/25 10:15:27;;;;;;;5.60;1.48;;;;;;;;;;4985057;28;20050;-81
2023/03/25 10:18:32;;;;;;;5.40;1.02;;;;;;;;;;4986418;28;20045;-81
2023/03/25 10:21:05;;;;;;;5.03;1.10;;;;;;;;;;5000230;28;20480;-81
2023/03/25 10:23:47;;;;;;;5.47;1.13;;;;;;;;;;4987523;28;20070;-81
2023/03/25 10:26:29;;;;;;;2.60;0.93;;;;;;;;;;4984900;28;20048;-81
2023/03/25 10:29:03;;;;;;;3.38;0.98;;;;;;;;;;4963822;28;20042;-81
2023/03/25 10:31:36;;;;;;;2.72;1.10;;;;;;;;;;4981838;28;20066;-81
2023/03/25 10:34:15;;;;;;;4.00;1.25;;;;;;;;;;4984459;28;20057;-81
2023/03/25 10:36:59;;;;;;;3.97;1.15;;;;;;;;;;4980357;28;20046;-82
2023/03/25 10:39:37;;;;;;;7.47;1.83;;;;;;;;;;4985963;28;20043;-80
2023/03/25 10:42:38;;;;;;;3.95;1.50;;;;;;;;;;4986872;28;20034;-80
2023/03/25 10:45:46;;;;;;;3.60;1.27;;;;;;;;;;4997582;28;20102;-81
2023/03/25 10:48:24;;;;;;;7.50;1.67;;;;;;;;;;4968569;28;20038;-81
2023/03/25 10:51:09;;;;;;;5.68;1.42;;;;;;;;;;4970130;28;20091;-81
2023/03/25 10:53:39;;;;;;;5.18;1.38;;;;;;;;;;4968575;28;20164;-81
2023/03/25 10:56:16;;;;;;;4.70;1.70;;;;;;;;;;4977560;28;20400;-81
2023/03/25 10:59:21;;;;;;;5.38;1.55;;;;;;;;;;4986466;28;20173;-81
2023/03/25 11:01:51;;;;;;;4.10;1.30;;;;;;;;;;4983291;28;20096;-81
2023/03/25 11:04:21;;;;;;;12.45;1.83;;;;;;;;;;4979778;28;20057;-81
2023/03/25 11:06:56;;;;;;;7.30;1.60;;;;;;;;;;4984217;28;20047;-82
2023/03/25 11:09:29;;;;;;;6.13;1.85;;;;;;;;;;4956055;28;20046;-82
2023/03/25 11:12:01;;;;;;;11.10;1.75;;;;;;;;;;4982510;28;20137;-82
2023/03/25 11:14:29;;;;;;;5.07;1.42;;;;;;;;;;4987069;28;20070;-82
2023/03/25 11:17:25;;;;;;;9.88;1.58;;;;;;;;;;4986458;28;20484;-81
2023/03/25 11:20:07;;;;;;;5.97;1.60;;;;;;;;;;4985215;28;20052;-82
2023/03/25 11:22:37;;;;;;;4.53;1.55;;;;;;;;;;4988950;28;20039;-81
2023/03/25 11:28:12;;;;;;;3.38;1.20;;;;;;;;;;4986009;28;20066;-81
2023/03/25 11:31:16;;;;;;;7.70;1.60;;;;;;;;;;4987092;28;20038;-81
2023/03/25 11:34:19;;;;;;;2.42;0.90;;;;;;;;;;4984451;28;20539;-81
2023/03/25 11:36:53;;;;;;;1.63;0.93;;;;;;;;;;4986601;28;20050;-81
2023/03/25 11:39:21;;;;;;;2.05;0.95;;;;;;;;;;4961080;28;20069;-81
2023/03/25 11:42:16;;;;;;;4.13;0.98;;;;;;;;;;4972994;28;20083;-81
2023/03/25 11:44:54;;;;;;;2.65;1.00;;;;;;;;;;4969273;28;20047;-81
2023/03/25 11:47:33;;;;;;;2.58;0.80;;;;;;;;;;4986618;28;20126;-82
2023/03/25 11:50:02;;;;;;;2.35;0.68;;;;;;;;;;4984965;28;20074;-81
2023/03/25 11:52:51;;;;;;;2.75;0.80;;;;;;;;;;4986828;28;20043;-81
2023/03/25 11:55:25;;;;;;;2.33;1.10;;;;;;;;;;4984111;28;20475;-81
2023/03/25 11:57:56;;;;;;;5.47;1.30;;;;;;;;;;4968558;28;20038;-81
2023/03/25 12:00:30;;;;;;;5.43;1.27;;;;;;;;;;4969644;28;20038;-81
2023/03/25 12:02:59;;;;;;;4.10;1.20;;;;;;;;;;4969918;28;20077;-84
2023/03/25 12:05:27;;;;;;;4.00;1.17;;;;;;;;;;4954882;28;20047;-84
2023/03/25 12:08:17;;;;;;;4.57;1.55;;;;;;;;;;4986881;28;20039;-81
2023/03/25 12:11:19;;;;;;;4.20;1.10;;;;;;;;;;4989930;28;20038;-81
2023/03/25 12:13:54;;;;;;;2.58;1.20;;;;;;;;;;4989466;28;20099;-81
2023/03/25 12:16:59;;;;;;;2.35;0.85;;;;;;;;;;4990405;28;20504;-81
2023/03/25 12:19:44;;;;;;;4.32;0.90;;;;;;;;;;4987875;28;20042;-81
2023/03/25 12:22:50;;;;;;;2.08;0.93;;;;;;;;;;5004888;28;20038;-81
2023/03/25 12:25:42;;;;;;;4.10;1.15;;;;;;;;;;5002569;28;20070;-81
2023/03/25 12:28:32;;;;;;;5.93;1.30;;;;;;;;;;5004846;28;20078;-81
2023/03/25 12:31:43;;;;;;;5.57;1.40;;;;;;;;;;5003940;28;20107;-81
2023/03/25 12:34:30;;;;;;;5.10;0.98;;;;;;;;;;4987253;28;20058;-81
2023/03/25 12:37:16;;;;;;;4.30;1.40;;;;;;;;;;4989190;28;20046;-81
2023/03/25 12:40:07;;;;;;;2.47;0.98;;;;;;;;;;4971290;28;20046;-81
2023/03/25 12:42:47;;;;;;;4.03;1.20;;;;;;;;;;4987662;28;20034;-82
2023/03/25 12:45:48;;;;;;;6.65;1.38;;;;;;;;;;4975526;28;20522;-82
2023/03/25 12:48:27;;;;;;;4.80;1.20;;;;;;;;;;4988929;28;20052;-83
2023/03/25 12:51:46;;;;;;;4.05;1.63;;;;;;;;;;4984404;28;20034;-82
2023/03/25 12:54:28;;;;;;;6.25;1.30;;;;;;;;;;4970807;28;20054;-82
2023/03/25 12:57:19;;;;;;;5.70;1.27;;;;;;;;;;4970676;28;20488;-81
2023/03/25 12:59:55;;;;;;;5.20;1.30;;;;;;;;;;4962922;28;20450;-82
2023/03/25 13:03:03;;;;;;;3.70;1.30;;;;;;;;;;4980511;28;20126;-82
2023/03/25 13:05:58;;;;;;;6.22;1.40;;;;;;;;;;4986033;28;20057;-82
2023/03/25 13:08:43;;;;;;;3.75;1.20;;;;;;;;;;4988619;28;20038;-82
2023/03/25 13:12:16;;;;;;;4.80;1.15;;;;;;;;;;4978560;28;20079;-82
2023/03/25 13:15:01;;;;;;;3.85;1.08;;;;;;;;;;4972498;28;20042;-82
2023/03/25 13:17:46;;;;;;;5.90;1.20;;;;;;;;;;4990309;28;20474;-82
2023/03/25 13:20:45;;;;;;;3.72;1.30;;;;;;;;;;5006422;28;20076;-82
2023/03/25 13:23:20;;;;;;;4.18;1.35;;;;;;;;;;4961961;28;20050;-82
2023/03/25 13:26:02;;;;;;;5.22;1.65;;;;;;;;;;4970895;28;20043;-83
2023/03/25 13:28:42;;;;;;;4.00;1.45;;;;;;;;;;4956688;28;20100;-82
2023/03/25 13:31:26;;;;;;;6.00;1.73;;;;;;;;;;4988576;28;20084;-82
2023/03/25 13:34:16;;;;;;;6.88;2.00;;;;;;;;;;4987198;28;20117;-83
2023/03/25 13:37:33;;;;;;;3.55;2.00;;;;;;;;;;4989047;28;20043;-82
2023/03/25 13:40:10;;;;;;;6.10;2.00;;;;;;;;;;4987852;28;20600;-82
2023/03/25 13:42:49;;;;;;;3.78;1.45;;;;;;;;;;4979470;28;20061;-82
2023/03/25 13:45:19;;;;;;;5.28;1.40;;;;;;;;;;4963238;28;20038;-82
2023/03/25 13:48:08;;;;;;;4.72;1.48;;;;;;;;;;4979266;28;20049;-82
2023/03/25 13:50:41;;;;;;;5.28;1.60;;;;;;;;;;4982273;28;20591;-81
2023/03/25 13:53:57;;;;;;;4.00;2.30;;;;;;;;;;4995436;28;20400;-82
2023/03/25 13:56:56;;;;;;;4.43;1.92;;;;;;;;;;4968569;28;20050;-79
2023/03/25 13:59:58;;;;;;;7.25;1.60;;;;;;;;;;4984055;28;20070;-80
2023/03/25 14:02:51;;;;;;;7.28;1.90;;;;;;;;;;4987814;28;20039;-79
2023/03/25 14:08:30;;;;;;;4.20;1.15;;;;;;;;;;4986468;28;20838;-79
2023/03/25 14:11:30;;;;;;;4.63;1.10;;;;;;;;;;4965058;28;20038;-79
2023/03/25 14:14:11;;;;;;;3.83;0.95;;;;;;;;;;4974295;28;20061;-79
2023/03/25 14:16:45;;;;;;;3.20;0.90;;;;;;;;;;4986880;28;20050;-79
2023/03/25 14:19:16;;;;;;;2.85;0.60;;;;;;;;;;5000465;28;20042;-80
2023/03/25 14:21:50;;;;;;;3.15;0.43;;;;;;;;;;4970954;28;20031;-80
2023/03/25 14:24:30;;;;;;;3.70;0.70;;;;;;;;;;4985589;28;20065;-80
2023/03/25 14:27:03;;;;;;;3.72;0.60;;;;;;;;;;4985317;28;20119;-80
2023/03/25 14:30:00;;;;;;;2.35;0.60;;;;;;;;;;4970194;28;20042;-80
2023/03/25 14:32:39;;;;;;;3.42;0.77;;;;;;;;;;4978696;28;20112;-80
2023/03/25 14:35:33;;;;;;;3.35;0.70;;;;;;;;;;4986219;28;20038;-80
2023/03/25 14:38:07;;;;;;;2.70;0.73;;;;;;;;;;4987176;28;20868;-80
2023/03/25 14:41:01;;;;;;;4.05;0.88;;;;;;;;;;4983518;28;20080;-80
2023/03/25 14:43:35;;;;;;;5.88;1.02;;;;;;;;;;4966766;28;20042;-80
2023/03/25 14:46:09;;;;;;;3.00;0.93;;;;;;;;;;4967011;28;20484;-80
2023/03/25 14:49:04;;;;;;;3.53;0.90;;;;;;;;;;4982087;28;20061;-80
2023/03/25 14:51:57;;;;;;;3.63;0.70;;;;;;;;;;4985093;28;20489;-80
2023/03/25 14:54:29;;;;;;;4.72;1.65;;;;;;;;;;4985563;28;20118;-80
2023/03/25 14:57:20;;;;;;;6.30;1.52;;;;;;;;;;4981067;28;20036;-80
2023/03/25 14:59:50;;;;;;;7.15;1.05;;;;;;;;;;4985128;28;20069;-80
2023/03/25 15:02:32;;;;;;;2.10;0.75;;;;;;;;;;4984249;28;20034;-80
2023/03/25 15:05:23;;;;;;;5.05;0.93;;;;;;;;;;4983417;28;20039;-79
2023/03/25 15:08:09;;;;;;;3.63;1.08;;;;;;;;;;4986444;28;21024;-79
2023/03/25 15:10:41;;;;;;;5.30;1.27;;;;;;;;;;4985640;28;20449;-79
2023/03/25 15:13:16;;;;;;;5.53;1.70;;;;;;;;;;4967882;28;20066;-79
2023/03/25 15:15:50;;;;;;;5.30;1.30;;;;;;;;;;4984354;28;20068;-79
2023/03/25 15:18:34;;;;;;;6.13;2.08;;;;;;;;;;4986413;28;20125;-80
2023/03/25 15:21:09;;;;;;;4.78;1.58;;;;;;;;;;4986321;28;20046;-80
2023/03/25 15:23:46;;;;;;;7.07;1.77;;;;;;;;;;4997307;28;20388;-80
2023/03/25 15:26:44;;;;;;;8.43;2.17;;;;;;;;;;4977649;28;20034;-79
2023/03/25 15:29:47;;;;;;;5.03;1.35;;;;;;;;;;4982896;28;20046;-80
2023/03/25 15:33:10;;;;;;;5.93;1.42;;;;;;;;;;4980156;28;20388;-80
2023/03/25 15:35:44;;;;;;;5.50;1.30;;;;;;;;;;4982503;28;20038;-79
2023/03/25 15:39:00;;;;;;;4.75;1.50;;;;;;;;;;4980568;28;20117;-80
2023/03/25 15:41:45;;;;;;;2.67;1.20;;;;;;;;;;4983715;28;20072;-79
2023/03/25 15:44:46;;;;;;;3.00;1.10;;;;;;;;;;4974140;28;20030;-79
2023/03/25 15:47:40;;;;;;;3.63;1.30;;;;;;;;;;4969236;28;20043;-80
2023/03/25 15:50:18;;;;;;;4.68;1.05;;;;;;;;;;4988150;28;20107;-80
2023/03/25 15:53:10;;;;;;;4.13;1.10;;;;;;;;;;4989904;28;20089;-79
2023/03/25 15:55:57;;;;;;;3.42;1.10;;;;;;;;;;4982978;28;20039;-79
2023/03/25 15:58:33;;;;;;;4.35;1.00;;;;;;;;;;4986319;28;20080;-80
2023/03/25 16:01:33;;;;;;;6.45;1.45;;;;;;;;;;4977564;28;20151;-80
2023/03/25 16:04:11;;;;;;;4.38;1.38;;;;;;;;;;4988802;28;20050;-79
2023/03/25 16:06:42;;;;;;;2.42;0.90;;;;;;;;;;4985107;28;20049;-79